Time;durP1;ratioP1;P1;durP2;ratioP2;P2;SDS_P1;SDS_P2;PMS_P1;PMS_P2;Temp;Humidity;BMP_temperature;BMP_pressure;BME280_temperature;BME280_humidity;BME280_pressure;Samples;Min_cycle;Max_cycle;Signal;HPM_P1;HPM_P2
2022/12/10 00:01:06;;;;;;;34.73;11.27;;;;;;;-141.28;100.00;50860.19;5105238;28;20890;-75
2022/12/10 00:03:34;;;;;;;29.53;10.90;;;;;;;-141.28;100.00;50866.09;5093549;28;20458;-75
2022/12/10 00:06:02;;;;;;;30.53;11.27;;;;;;;-141.28;100.00;50868.06;5092720;28;20438;-77
2022/12/10 00:08:29;;;;;;;20.63;10.07;;;;;;;-141.28;100.00;50781.69;5092563;28;20484;-77
2022/12/10 00:10:57;;;;;;;20.83;10.00;;;;;;;-141.28;100.00;50832.72;5092811;28;21048;-76
2022/12/10 00:13:24;;;;;;;23.60;9.60;;;;;;;-141.28;100.00;50728.69;5092636;28;20450;-75
2022/12/10 00:15:52;;;;;;;34.00;9.90;;;;;;;-141.28;100.00;50871.97;5092589;28;20446;-78
2022/12/10 00:18:20;;;;;;;26.20;9.83;;;;;;;-141.28;100.00;50836.66;5092347;28;20499;-76
2022/12/10 00:20:47;;;;;;;26.43;9.30;;;;;;;-141.28;100.00;50809.16;5092339;28;20889;-78
2022/12/10 00:23:14;;;;;;;21.83;9.40;;;;;;;-141.28;100.00;50864.13;5092691;28;20445;-77
2022/12/10 00:25:41;;;;;;;24.43;10.97;;;;;;;-141.28;100.00;50844.50;5092545;28;20476;-76
2022/12/10 00:28:09;;;;;;;21.90;9.33;;;;;;;-141.28;100.00;50797.38;5100123;28;20445;-75
2022/12/10 00:30:36;;;;;;;28.20;10.10;;;;;;;-141.28;100.00;50852.34;5100955;28;20454;-73
2022/12/10 00:33:03;;;;;;;28.07;10.83;;;;;;;-141.28;100.00;50905.34;5112763;28;20449;-75
2022/12/10 00:35:31;;;;;;;21.33;10.00;;;;;;;-141.28;100.00;50893.56;5107541;28;20963;-76
2022/12/10 00:37:57;;;;;;;23.17;10.63;;;;;;;-141.28;100.00;50899.47;5112143;28;20976;-76
2022/12/10 00:40:24;;;;;;;28.23;9.50;;;;;;;-141.28;100.00;50893.56;5096330;28;20481;-77
2022/12/10 00:42:53;;;;;;;20.43;10.30;;;;;;;-141.28;100.00;50856.28;5101676;28;20441;-76
2022/12/10 00:45:21;;;;;;;20.23;9.80;;;;;;;-141.28;100.00;50832.72;5108923;28;20449;-75
2022/12/10 00:47:49;;;;;;;28.57;12.33;;;;;;;-141.28;100.00;50711.00;5103290;28;20433;-78
2022/12/10 00:50:17;;;;;;;31.23;12.27;;;;;;;-141.28;100.00;50809.16;5107459;28;20511;-76
2022/12/10 00:52:44;;;;;;;23.67;8.87;;;;;;;-141.28;100.00;50846.47;5102804;28;20875;-77
2022/12/10 00:55:11;;;;;;;20.63;9.30;;;;;;;-141.28;100.00;50836.66;5095028;28;20449;-75
2022/12/10 00:57:38;;;;;;;28.83;9.20;;;;;;;-141.28;100.00;50820.94;5091900;28;20502;-77
2022/12/10 01:00:06;;;;;;;20.10;9.20;;;;;;;-141.28;100.00;50801.31;5092007;28;20492;-77
2022/12/10 01:02:34;;;;;;;22.33;8.63;;;;;;;-141.28;100.00;50817.03;5091970;28;20458;-74
2022/12/10 01:05:03;;;;;;;23.43;9.10;;;;;;;-141.28;100.00;50322.34;5092153;28;20442;-78
2022/12/10 01:07:30;;;;;;;30.23;8.63;;;;;;;-141.28;100.00;50785.59;5102916;28;20452;-75
2022/12/10 01:09:57;;;;;;;23.97;8.83;;;;;;;-141.28;100.00;50828.78;5100583;28;20453;-76
2022/12/10 01:12:24;;;;;;;24.17;9.67;;;;;;;-141.28;100.00;50777.75;5104637;28;20445;-77
2022/12/10 01:14:51;;;;;;;24.13;9.27;;;;;;;-141.28;100.00;50828.78;5097284;28;20504;-77
2022/12/10 01:17:18;;;;;;;23.80;8.40;;;;;;;-141.28;100.00;50883.75;5110055;28;20451;-75
2022/12/10 01:19:46;;;;;;;21.30;8.53;;;;;;;-141.28;100.00;50860.19;5098633;28;20477;-76
2022/12/10 01:22:13;;;;;;;21.10;8.60;;;;;;;-141.28;100.00;50868.06;5098245;28;20445;-75
2022/12/10 01:24:40;;;;;;;23.70;8.50;;;;;;;-141.28;100.00;50828.78;5106335;28;20509;-77
2022/12/10 01:27:07;;;;;;;19.90;7.63;;;;;;;-141.28;100.00;50815.06;5095597;28;20458;-76
2022/12/10 01:29:34;;;;;;;16.37;8.50;;;;;;;-141.28;100.00;50777.75;5097130;28;20442;-76
2022/12/10 01:32:01;;;;;;;22.17;8.83;;;;;;;-141.28;100.00;50791.50;5095563;28;20547;-78
2022/12/10 01:34:28;;;;;;;21.77;8.10;;;;;;;-141.28;100.00;50807.19;5111753;28;20455;-77
2022/12/10 01:36:57;;;;;;;20.13;8.57;;;;;;;-141.28;100.00;50795.41;5093728;28;20464;-78
2022/12/10 01:39:24;;;;;;;22.93;8.27;;;;;;;-141.28;100.00;50785.59;5091715;28;20507;-76
2022/12/10 01:41:55;;;;;;;20.70;8.50;;;;;;;-141.28;100.00;50785.59;5108481;28;20437;-76
2022/12/10 01:44:59;;;;;;;17.23;8.17;;;;;;;-141.28;100.00;50628.56;5106657;28;20960;-75
2022/12/10 01:47:26;;;;;;;15.63;7.47;;;;;;;-141.28;100.00;50446.03;5091380;28;20460;-78
2022/12/10 01:49:53;;;;;;;20.40;7.70;;;;;;;-141.28;100.00;50546.13;5101430;28;20453;-77
2022/12/10 01:52:21;;;;;;;18.47;7.57;;;;;;;-141.28;100.00;50603.06;5095050;28;20450;-76
2022/12/10 01:54:48;;;;;;;23.27;7.47;;;;;;;-141.28;100.00;50614.81;5091623;28;20840;-78
2022/12/10 01:57:18;;;;;;;23.30;7.93;;;;;;;-141.28;100.00;50673.72;5105312;28;20511;-76
2022/12/10 01:59:48;;;;;;;13.90;6.60;;;;;;;-141.28;100.00;50663.91;5094374;28;20481;-76
2022/12/10 02:02:33;;;;;;;17.83;6.90;;;;;;;-141.28;100.00;50610.91;5108850;28;21028;-75
2022/12/10 02:05:14;;;;;;;17.30;7.00;;;;;;;-141.28;100.00;50557.91;5095041;28;20448;-75
2022/12/10 02:07:55;;;;;;;21.33;7.87;;;;;;;-141.28;100.00;50444.06;5095218;28;20943;-76
2022/12/10 02:10:36;;;;;;;20.63;7.50;;;;;;;-141.28;100.00;50436.19;5102103;28;20451;-77
2022/12/10 02:13:09;;;;;;;16.97;7.60;;;;;;;-141.28;100.00;50375.34;5101941;28;20453;-75
2022/12/10 02:15:41;;;;;;;16.83;7.60;;;;;;;-141.28;100.00;50424.44;5111440;28;21031;-78
2022/12/10 02:18:12;;;;;;;22.00;7.77;;;;;;;-141.28;100.00;50391.06;5099970;28;20449;-75
2022/12/10 02:20:43;;;;;;;24.10;9.10;;;;;;;-141.28;100.00;50440.13;5104199;28;20998;-78
2022/12/10 02:23:14;;;;;;;21.83;8.00;;;;;;;-141.28;100.00;50467.59;5111499;28;20468;-76
2022/12/10 02:25:46;;;;;;;17.90;8.07;;;;;;;-141.28;100.00;50471.53;5104502;28;20472;-77
2022/12/10 02:28:20;;;;;;;20.17;7.53;;;;;;;-141.28;100.00;50471.53;5115018;28;20445;-77
2022/12/10 02:30:51;;;;;;;14.37;6.93;;;;;;;-141.28;100.00;50491.16;5103083;28;21028;-75
2022/12/10 02:33:21;;;;;;;21.17;7.63;;;;;;;-141.28;100.00;50510.78;5095054;28;20445;-74
2022/12/10 02:35:52;;;;;;;18.33;7.33;;;;;;;-141.28;100.00;50567.72;5097542;28;20514;-76
2022/12/10 02:38:24;;;;;;;14.10;6.23;;;;;;;-141.28;100.00;50608.94;5114589;28;20974;-77
2022/12/10 02:40:58;;;;;;;17.33;7.33;;;;;;;-141.28;100.00;50544.16;5114462;28;20491;-77
2022/12/10 02:43:27;;;;;;;18.20;7.30;;;;;;;-141.28;100.00;50593.22;5095801;28;20964;-75
2022/12/10 02:45:58;;;;;;;11.97;7.60;;;;;;;-141.28;100.00;50605.00;5094938;28;20948;-75
2022/12/10 02:48:26;;;;;;;19.93;7.07;;;;;;;-141.28;100.00;50667.81;5095430;28;20928;-76
2022/12/10 02:50:53;;;;;;;19.43;7.50;;;;;;;-141.28;100.00;50722.78;5108600;28;20470;-79
2022/12/10 02:53:20;;;;;;;15.37;7.10;;;;;;;-141.28;100.00;50408.72;5095474;28;20605;-77
2022/12/10 02:56:14;;;;;;;23.33;7.03;;;;;;;-141.28;100.00;50738.50;5110043;28;20455;-75
2022/12/10 02:58:54;;;;;;;20.13;7.47;;;;;;;-141.28;100.00;50605.00;5110698;28;20458;-75
2022/12/10 03:01:33;;;;;;;16.37;7.20;;;;;;;-141.28;100.00;50585.38;5130955;28;20489;-78
2022/12/10 03:04:05;;;;;;;13.67;7.07;;;;;;;-141.28;100.00;50587.34;5131144;28;20591;-78
2022/12/10 03:06:37;;;;;;;17.57;7.43;;;;;;;-141.28;100.00;50593.22;5109746;28;20507;-76
2022/12/10 03:09:07;;;;;;;17.23;7.30;;;;;;;-141.28;100.00;50632.50;5098792;28;20449;-76
2022/12/10 03:11:35;;;;;;;17.07;7.03;;;;;;;-141.28;100.00;50624.63;5114731;28;20452;-75
2022/12/10 03:14:08;;;;;;;18.03;7.17;;;;;;;-141.28;100.00;50620.72;5108429;28;20448;-76
2022/12/10 03:16:40;;;;;;;17.87;6.83;;;;;;;-141.28;100.00;50667.81;5094918;28;20450;-80
2022/12/10 03:19:11;;;;;;;20.17;7.07;;;;;;;-141.28;100.00;50695.31;5103837;28;21012;-77
2022/12/10 03:21:40;;;;;;;11.67;6.67;;;;;;;-141.28;100.00;50644.28;5113698;28;20484;-76
2022/12/10 03:24:08;;;;;;;15.60;6.30;;;;;;;-141.28;100.00;50722.78;5113680;28;20510;-78
2022/12/10 03:26:36;;;;;;;17.37;7.47;;;;;;;-141.28;100.00;50744.38;5109222;28;20465;-75
2022/12/10 03:29:06;;;;;;;11.30;6.73;;;;;;;-141.28;100.00;50718.88;5093492;28;20502;-77
2022/12/10 03:31:36;;;;;;;15.60;6.97;;;;;;;-141.28;100.00;50730.66;5107555;28;20449;-78
2022/12/10 03:34:05;;;;;;;21.13;7.97;;;;;;;-141.28;100.00;50742.41;5093589;28;20446;-75
2022/12/10 03:36:34;;;;;;;17.53;7.77;;;;;;;-141.28;100.00;50734.56;5099891;28;20444;-76
2022/12/10 03:39:02;;;;;;;20.27;7.53;;;;;;;-141.28;100.00;50732.59;5113735;28;20449;-78
2022/12/10 03:41:29;;;;;;;18.33;6.73;;;;;;;-141.28;100.00;50734.56;5105973;28;20489;-78
2022/12/10 03:43:58;;;;;;;15.50;6.30;;;;;;;-141.28;100.00;50714.94;5093864;28;20499;-76
2022/12/10 03:46:26;;;;;;;12.73;6.60;;;;;;;-141.28;100.00;50683.53;5113229;28;20947;-78
2022/12/10 03:48:54;;;;;;;15.50;6.67;;;;;;;-141.28;100.00;50675.69;5102013;28;20475;-75
2022/12/10 03:51:22;;;;;;;13.00;6.00;;;;;;;-141.28;100.00;50671.75;5096855;28;20445;-76
2022/12/10 03:53:49;;;;;;;16.37;6.40;;;;;;;-141.28;100.00;50703.16;5094903;28;20445;-75
2022/12/10 03:56:18;;;;;;;13.03;5.63;;;;;;;-141.28;100.00;50726.72;5100145;28;20531;-75
2022/12/10 03:58:45;;;;;;;14.53;6.00;;;;;;;-141.28;100.00;50703.16;5101812;28;20506;-75
2022/12/10 04:01:12;;;;;;;16.73;6.23;;;;;;;-141.28;100.00;50687.47;5111370;28;20485;-74
2022/12/10 04:03:41;;;;;;;13.20;5.73;;;;;;;-141.28;100.00;50726.72;5103506;28;20458;-74
2022/12/10 04:06:17;;;;;;;15.47;6.43;;;;;;;-141.28;100.00;50665.88;5111622;28;20460;-74
2022/12/10 04:08:43;;;;;;;15.53;6.10;;;;;;;-141.28;100.00;50654.09;5094064;28;20438;-76
2022/12/10 04:11:12;;;;;;;17.47;6.37;;;;;;;-141.28;100.00;50687.47;5093303;28;20829;-76
2022/12/10 04:16:28;;;;;;;14.63;6.00;;;;;;;-141.28;100.00;50632.50;5101250;28;20522;-76
2022/12/10 04:18:56;;;;;;;15.37;6.07;;;;;;;-141.28;100.00;50671.75;5110990;28;20817;-76
2022/12/10 04:26:55;;;;;;;13.07;6.80;;;;;;;-141.28;100.00;50612.88;5101553;28;20971;-75
2022/12/10 04:29:22;;;;;;;15.00;7.37;;;;;;;-141.28;100.00;50671.75;5100447;28;20454;-76
2022/12/10 04:31:49;;;;;;;15.60;9.43;;;;;;;-141.28;100.00;50789.53;5097606;28;20884;-75
2022/12/10 04:34:16;;;;;;;14.50;6.80;;;;;;;-141.28;100.00;50871.97;5092992;28;20989;-75
2022/12/10 04:36:45;;;;;;;13.17;6.50;;;;;;;-141.28;100.00;50946.59;5092526;28;20461;-75
2022/12/10 04:39:13;;;;;;;14.43;6.07;;;;;;;-141.28;100.00;50979.97;5093840;28;20807;-77
2022/12/10 04:41:42;;;;;;;13.00;6.67;;;;;;;-141.28;100.00;50997.63;5092176;28;20576;-77
2022/12/10 04:44:09;;;;;;;15.13;5.80;;;;;;;-141.28;100.00;51048.66;5092534;28;20864;-75
2022/12/10 04:46:38;;;;;;;11.97;5.70;;;;;;;-141.28;100.00;50981.91;5092698;28;20506;-76
2022/12/10 04:49:06;;;;;;;15.37;5.80;;;;;;;-141.28;100.00;51103.63;5092235;28;20449;-77
2022/12/10 04:51:33;;;;;;;10.90;5.30;;;;;;;-141.28;100.00;51168.44;5092132;28;20859;-77
2022/12/10 04:54:02;;;;;;;15.03;6.37;;;;;;;-141.28;100.00;51131.13;5091626;28;20445;-78
2022/12/10 04:56:29;;;;;;;13.37;5.53;;;;;;;-141.28;100.00;51142.91;5092100;28;20450;-75
2022/12/10 04:58:57;;;;;;;20.23;5.77;;;;;;;-141.28;100.00;51123.28;5092063;28;20434;-75
2022/12/10 05:01:24;;;;;;;12.33;5.90;;;;;;;-141.28;100.00;51115.41;5092151;28;20504;-78
2022/12/10 05:03:51;;;;;;;13.23;5.90;;;;;;;-141.28;100.00;51119.34;5091867;28;20499;-75
2022/12/10 05:06:20;;;;;;;15.87;6.07;;;;;;;-141.28;100.00;51146.81;5092024;28;20452;-75
2022/12/10 05:08:47;;;;;;;13.23;6.40;;;;;;;-141.28;100.00;51148.78;5091578;28;20511;-79
2022/12/10 05:11:18;;;;;;;18.60;7.30;;;;;;;-141.28;100.00;51084.00;5092019;28;20499;-75
2022/12/10 05:13:45;;;;;;;17.43;8.60;;;;;;;-141.28;100.00;51060.44;5092920;28;20498;-75
2022/12/10 05:16:15;;;;;;;19.50;7.63;;;;;;;-141.28;100.00;51060.44;5103290;28;20448;-77
2022/12/10 05:18:42;;;;;;;16.17;6.73;;;;;;;-141.28;100.00;51060.44;5091658;28;20441;-76
2022/12/10 05:21:12;;;;;;;17.57;7.10;;;;;;;-141.28;100.00;51034.94;5091252;28;20860;-76
2022/12/10 05:23:42;;;;;;;14.33;6.80;;;;;;;-141.28;100.00;51013.31;5099240;28;20468;-76
2022/12/10 05:26:12;;;;;;;18.07;8.40;;;;;;;-141.28;100.00;50962.28;5110145;28;20525;-79
2022/12/10 05:28:43;;;;;;;25.20;8.27;;;;;;;-141.28;100.00;50954.44;5091792;28;20472;-75
2022/12/10 05:31:13;;;;;;;24.03;8.43;;;;;;;-141.28;100.00;50926.94;5094138;28;20503;-77
2022/12/10 05:33:40;;;;;;;25.87;8.33;;;;;;;-141.28;100.00;50848.44;5094173;28;20449;-76
2022/12/10 05:36:07;;;;;;;17.70;7.93;;;;;;;-141.28;100.00;50887.69;5099379;28;20440;-78
2022/12/10 05:38:35;;;;;;;21.77;7.73;;;;;;;-141.28;100.00;50868.06;5106887;28;20450;-76
2022/12/10 05:41:03;;;;;;;14.57;7.33;;;;;;;-141.28;100.00;50848.44;5109417;28;20476;-79
2022/12/10 05:43:31;;;;;;;14.47;7.27;;;;;;;-141.28;100.00;50856.28;5096228;28;20919;-77
2022/12/10 05:46:01;;;;;;;14.40;7.03;;;;;;;-141.28;100.00;50789.53;5095408;28;20449;-76
2022/12/10 05:48:29;;;;;;;13.63;7.30;;;;;;;-141.28;100.00;50730.66;5095837;28;20565;-76
2022/12/10 05:50:56;;;;;;;27.37;12.57;;;;;;;-141.28;100.00;50726.72;5095510;28;20454;-75
2022/12/10 05:53:23;;;;;;;16.20;8.03;;;;;;;-141.28;100.00;50701.19;5096037;28;20506;-77
2022/12/10 05:55:51;;;;;;;16.77;8.80;;;;;;;-141.28;100.00;50630.53;5095425;28;20850;-76
2022/12/10 05:58:18;;;;;;;25.97;11.33;;;;;;;-141.28;100.00;50597.16;5095092;28;20484;-75
2022/12/10 06:00:45;;;;;;;18.40;10.17;;;;;;;-141.28;100.00;50593.22;5095425;28;20448;-76
2022/12/10 06:03:13;;;;;;;17.60;9.40;;;;;;;-141.28;100.00;50534.34;5096089;28;20450;-76
2022/12/10 06:05:41;;;;;;;17.63;9.27;;;;;;;-141.28;100.00;50499.00;5095638;28;20449;-76
2022/12/10 06:08:08;;;;;;;18.00;9.63;;;;;;;-141.28;100.00;50479.38;5100813;28;20442;-75
2022/12/10 06:10:36;;;;;;;18.47;7.90;;;;;;;-141.28;100.00;50428.34;5096999;28;20471;-76
2022/12/10 06:13:03;;;;;;;11.40;6.90;;;;;;;-141.28;100.00;50446.03;5107551;28;20497;-78
2022/12/10 06:15:32;;;;;;;16.17;6.83;;;;;;;-141.28;100.00;50391.06;5109341;28;20880;-78
2022/12/10 06:18:00;;;;;;;15.67;6.97;;;;;;;-141.28;100.00;50369.47;5094909;28;20898;-78
2022/12/10 06:20:29;;;;;;;21.03;8.20;;;;;;;-141.28;100.00;50312.53;5086326;28;20455;-77
2022/12/10 06:23:02;;;;;;;20.20;9.83;;;;;;;-141.28;100.00;50287.03;5105903;28;20500;-75
2022/12/10 06:25:30;;;;;;;19.53;10.73;;;;;;;-141.28;100.00;50237.97;5116564;28;20515;-79
2022/12/10 06:28:01;;;;;;;18.83;9.53;;;;;;;-141.28;100.00;50202.63;5113288;28;20438;-75
2022/12/10 06:30:29;;;;;;;13.77;8.77;;;;;;;-141.28;100.00;50181.03;5098709;28;20453;-78
2022/12/10 06:32:57;;;;;;;16.00;8.20;;;;;;;-141.28;100.00;50133.94;5097000;28;20468;-76
2022/12/10 06:35:24;;;;;;;14.63;8.40;;;;;;;-141.28;100.00;50126.09;5113283;28;20951;-75
2022/12/10 06:37:53;;;;;;;18.00;9.63;;;;;;;-141.28;100.00;50106.47;5094372;28;20506;-76
2022/12/10 06:40:20;;;;;;;19.93;9.43;;;;;;;-141.28;100.00;50126.09;5096711;28;20453;-77
2022/12/10 06:42:47;;;;;;;19.43;9.03;;;;;;;-141.28;100.00;50100.56;5105490;28;20489;-76
2022/12/10 06:45:14;;;;;;;22.27;9.63;;;;;;;-141.28;100.00;50065.25;5107624;28;20497;-76
2022/12/10 06:47:42;;;;;;;17.40;9.50;;;;;;;-141.28;100.00;50039.72;5101237;28;20513;-79
2022/12/10 06:50:09;;;;;;;26.23;9.97;;;;;;;-141.28;100.00;50026.00;5113683;28;20445;-76
2022/12/10 06:52:36;;;;;;;22.33;9.80;;;;;;;-141.28;100.00;50008.34;5100893;28;20506;-75
2022/12/10 06:55:06;;;;;;;30.70;13.20;;;;;;;-141.28;100.00;50000.47;5100452;28;21041;-78
2022/12/10 06:57:33;;;;;;;47.53;23.40;;;;;;;-141.28;100.00;50008.34;5094012;28;20454;-78
2022/12/10 06:59:59;;;;;;;28.87;15.73;;;;;;;-141.28;100.00;49953.38;5094043;28;20899;-77
2022/12/10 07:02:27;;;;;;;31.50;14.77;;;;;;;-141.28;100.00;49984.78;5093563;28;20497;-75
2022/12/10 07:04:56;;;;;;;30.10;15.37;;;;;;;-141.28;100.00;49973.00;5093795;28;20456;-74
2022/12/10 07:07:23;;;;;;;40.73;23.80;;;;;;;-141.28;100.00;49945.53;5095113;28;20454;-76
2022/12/10 07:09:51;;;;;;;37.17;19.33;;;;;;;-141.28;100.00;49957.31;5098763;28;20446;-75
2022/12/10 07:12:20;;;;;;;30.83;16.00;;;;;;;-141.28;100.00;49945.53;5097732;28;20458;-76
2022/12/10 07:14:47;;;;;;;30.60;14.43;;;;;;;-141.28;100.00;49914.13;5107547;28;20474;-76
2022/12/10 07:17:14;;;;;;;34.53;17.27;;;;;;;-141.28;100.00;49910.19;5093772;28;20438;-78
2022/12/10 07:19:41;;;;;;;20.80;12.53;;;;;;;-141.28;100.00;49666.84;5093426;28;20473;-76
2022/12/10 07:22:08;;;;;;;21.07;11.43;;;;;;;-141.28;100.00;49886.66;5093742;28;20485;-75
2022/12/10 07:24:36;;;;;;;23.60;11.63;;;;;;;-141.28;100.00;49863.09;5093180;28;20462;-75
2022/12/10 07:27:06;;;;;;;24.47;13.20;;;;;;;-141.28;100.00;49684.53;5114173;28;20506;-75
2022/12/10 07:29:35;;;;;;;27.43;12.40;;;;;;;-141.28;100.00;49790.50;5093818;28;20458;-75
2022/12/10 07:32:03;;;;;;;21.60;13.03;;;;;;;-141.28;100.00;49804.22;5105956;28;20448;-75
2022/12/10 07:34:31;;;;;;;27.67;15.07;;;;;;;-141.28;100.00;49733.56;5094832;28;20457;-76
2022/12/10 07:37:01;;;;;;;25.80;14.63;;;;;;;-141.28;100.00;49737.50;5106763;28;20448;-76
2022/12/10 07:39:31;;;;;;;28.30;14.87;;;;;;;-141.28;100.00;49690.41;5106667;28;20462;-80
2022/12/10 07:41:58;;;;;;;32.10;13.83;;;;;;;-141.28;100.00;49660.97;5106862;28;20476;-77
2022/12/10 07:44:26;;;;;;;25.10;13.83;;;;;;;-141.28;100.00;49631.53;5093684;28;20445;-75
2022/12/10 07:46:55;;;;;;;25.83;13.27;;;;;;;-141.28;100.00;49580.50;5093605;28;20533;-77
2022/12/10 07:49:23;;;;;;;25.00;13.50;;;;;;;-141.28;100.00;49664.91;5101131;28;20452;-76
2022/12/10 07:51:51;;;;;;;40.10;18.90;;;;;;;-141.28;100.00;49682.56;5109148;28;20453;-76
2022/12/10 07:54:20;;;;;;;39.47;18.80;;;;;;;-141.28;100.00;49678.63;5095473;28;20983;-75
2022/12/10 07:56:47;;;;;;;28.50;14.13;;;;;;;-141.28;100.00;49674.72;5109855;28;20498;-76
2022/12/10 07:59:15;;;;;;;31.33;14.30;;;;;;;-141.28;100.00;49725.72;5098453;28;21062;-74
2022/12/10 08:01:42;;;;;;;26.60;12.67;;;;;;;-141.28;100.00;49704.13;5120683;28;20541;-75
2022/12/10 08:04:11;;;;;;;22.20;12.47;;;;;;;-141.28;100.00;49676.66;5106384;28;20826;-78
2022/12/10 08:06:38;;;;;;;26.77;12.40;;;;;;;-141.28;100.00;49674.72;5105266;28;20441;-76
2022/12/10 08:09:06;;;;;;;20.43;13.40;;;;;;;-141.28;100.00;49678.63;5112432;28;20449;-76
2022/12/10 08:11:34;;;;;;;23.93;13.43;;;;;;;-141.28;100.00;49666.84;5111313;28;20282;-77
2022/12/10 08:14:03;;;;;;;25.07;13.33;;;;;;;-141.28;100.00;49682.56;5092827;28;20987;-76
2022/12/10 08:16:31;;;;;;;22.60;12.40;;;;;;;-141.28;100.00;49647.22;5093792;28;20965;-79
2022/12/10 08:18:59;;;;;;;24.27;13.73;;;;;;;-141.28;100.00;49513.78;5092586;28;20526;-75
2022/12/10 08:21:29;;;;;;;23.37;12.60;;;;;;;-141.28;100.00;49655.09;5106592;28;20260;-76
2022/12/10 08:23:57;;;;;;;20.13;12.00;;;;;;;-141.28;100.00;49678.63;5093019;28;20440;-77
2022/12/10 08:26:26;;;;;;;27.47;12.67;;;;;;;-141.28;100.00;49678.63;5094780;28;20485;-75
2022/12/10 08:28:54;;;;;;;27.30;13.57;;;;;;;-141.28;100.00;49655.09;5095948;28;20449;-74
2022/12/10 08:31:23;;;;;;;20.63;11.40;;;;;;;-141.28;100.00;49670.78;5095286;28;20425;-77
2022/12/10 08:33:52;;;;;;;26.97;12.97;;;;;;;-141.28;100.00;49655.09;5102436;28;20233;-78
2022/12/10 08:36:23;;;;;;;29.97;16.30;;;;;;;-141.28;100.00;49651.16;5092118;28;20442;-77
2022/12/10 08:38:52;;;;;;;29.60;15.87;;;;;;;-141.28;100.00;49678.63;5103778;28;20665;-75
2022/12/10 08:41:20;;;;;;;30.60;14.77;;;;;;;-141.28;100.00;49725.72;5093966;28;20570;-75
2022/12/10 08:43:49;;;;;;;30.33;14.83;;;;;;;-141.28;100.00;49682.56;5092210;28;20460;-77
2022/12/10 08:46:17;;;;;;;24.40;12.57;;;;;;;-141.28;100.00;49710.03;5092192;28;20498;-77
2022/12/10 08:48:44;;;;;;;30.87;13.20;;;;;;;-141.28;100.00;49729.66;5091985;28;20449;-74
2022/12/10 08:51:14;;;;;;;26.23;13.70;;;;;;;-141.28;100.00;49706.09;5098454;28;20467;-78
2022/12/10 08:53:41;;;;;;;28.87;13.33;;;;;;;-141.28;100.00;49686.47;5108974;28;20207;-76
2022/12/10 08:56:11;;;;;;;25.30;14.60;;;;;;;-141.28;100.00;49702.19;5103137;28;20299;-76
2022/12/10 08:58:39;;;;;;;32.07;16.57;;;;;;;-141.28;100.00;49713.94;5095706;28;20199;-75
2022/12/10 09:01:08;;;;;;;33.33;18.77;;;;;;;-141.28;100.00;49717.88;5109547;28;20211;-75
2022/12/10 09:03:35;;;;;;;33.40;21.33;;;;;;;-141.28;100.00;49733.56;5098835;28;20485;-76
2022/12/10 09:06:04;;;;;;;35.27;20.53;;;;;;;-141.28;100.00;49812.06;5108148;28;20282;-76
2022/12/10 09:08:31;;;;;;;48.50;28.40;;;;;;;-141.28;100.00;49906.28;5103462;28;20468;-74
2022/12/10 09:10:58;;;;;;;45.67;28.03;;;;;;;-141.28;100.00;49874.88;5103550;28;20450;-76
2022/12/10 09:13:27;;;;;;;39.43;25.30;;;;;;;-141.28;100.00;49886.66;5096834;28;20696;-75
2022/12/10 09:15:54;;;;;;;36.67;23.30;;;;;;;-141.28;100.00;49939.63;5097602;28;20211;-76
2022/12/10 09:18:21;;;;;;;37.40;23.07;;;;;;;-141.28;100.00;49910.19;5097517;28;20203;-76
2022/12/10 09:20:49;;;;;;;40.00;21.70;;;;;;;-141.28;100.00;49849.38;5097365;28;20211;-76
2022/12/10 09:23:18;;;;;;;36.10;21.57;;;;;;;-141.28;100.00;49835.63;5102339;28;20231;-75
2022/12/10 09:25:46;;;;;;;36.93;20.17;;;;;;;-141.28;100.00;49843.47;5116664;28;20230;-75
2022/12/10 09:28:13;;;;;;;35.00;19.27;;;;;;;-141.28;100.00;49839.56;5099182;28;20221;-74
2022/12/10 09:30:42;;;;;;;31.40;18.03;;;;;;;-141.28;100.00;49890.56;5097103;28;20199;-75
2022/12/10 09:33:09;;;;;;;27.67;17.33;;;;;;;-141.28;100.00;49886.66;5091525;28;20748;-75
2022/12/10 09:35:35;;;;;;;27.47;16.03;;;;;;;-141.28;100.00;49898.44;5091684;28;20203;-76
2022/12/10 09:38:03;;;;;;;32.33;16.60;;;;;;;-141.28;100.00;49867.03;5105254;28;20268;-76
2022/12/10 09:40:37;;;;;;;29.30;15.40;;;;;;;-141.28;100.00;49802.25;5091619;28;20219;-75
2022/12/10 09:43:14;;;;;;;26.80;14.57;;;;;;;-141.28;100.00;49757.13;5098705;28;20705;-76
2022/12/10 09:45:49;;;;;;;22.17;13.63;;;;;;;-141.28;100.00;49694.31;5098634;28;20279;-78
2022/12/10 09:48:23;;;;;;;24.67;13.30;;;;;;;-141.28;100.00;49666.84;5101156;28;20199;-74
2022/12/10 09:50:57;;;;;;;18.57;12.77;;;;;;;-141.28;100.00;49600.13;5101480;28;20198;-77
2022/12/10 09:53:25;;;;;;;21.87;12.43;;;;;;;-141.28;100.00;49604.06;5107100;28;20225;-74
2022/12/10 09:55:52;;;;;;;19.70;10.23;;;;;;;-141.28;100.00;49629.56;5091330;28;20207;-78
2022/12/10 09:58:21;;;;;;;19.37;10.87;;;;;;;-141.28;100.00;49602.09;5104746;28;20260;-78
2022/12/10 10:00:55;;;;;;;22.47;11.00;;;;;;;-141.28;100.00;49607.97;5091314;28;20199;-76
2022/12/10 10:03:22;;;;;;;20.90;11.67;;;;;;;-141.28;100.00;49600.13;5110741;28;20226;-76
2022/12/10 10:05:51;;;;;;;19.73;11.90;;;;;;;-141.28;100.00;49588.34;5097718;28;20207;-73
2022/12/10 10:08:27;;;;;;;20.80;11.47;;;;;;;-141.28;100.00;49545.19;5104609;28;20204;-76
2022/12/10 10:10:54;;;;;;;23.53;12.77;;;;;;;-141.28;100.00;49490.25;5106202;28;20260;-78
2022/12/10 10:13:31;;;;;;;23.00;12.00;;;;;;;-141.28;100.00;49535.38;5111711;28;20214;-77
2022/12/10 10:16:13;;;;;;;22.90;12.37;;;;;;;-141.28;100.00;49611.91;5110574;28;20206;-78
2022/12/10 10:18:44;;;;;;;24.40;12.57;;;;;;;-141.28;100.00;49556.97;5091650;28;20203;-76
2022/12/10 10:21:21;;;;;;;20.27;10.63;;;;;;;-141.28;100.00;49562.84;5095304;28;20203;-77
2022/12/10 10:23:49;;;;;;;19.37;9.30;;;;;;;-141.28;100.00;49452.97;5103614;28;20775;-77
2022/12/10 10:26:16;;;;;;;19.40;10.30;;;;;;;-141.28;100.00;49411.75;5100198;28;20230;-75
2022/12/10 10:28:45;;;;;;;19.73;10.90;;;;;;;-141.28;100.00;49482.41;5097905;28;20203;-74
2022/12/10 10:31:23;;;;;;;19.53;11.03;;;;;;;-141.28;100.00;49443.16;5098231;28;20210;-76
2022/12/10 10:33:56;;;;;;;18.13;10.67;;;;;;;-141.28;100.00;49415.69;5094883;28;20207;-76
2022/12/10 10:36:28;;;;;;;19.53;11.20;;;;;;;-141.28;100.00;49462.78;5094920;28;20195;-76
2022/12/10 10:38:55;;;;;;;20.77;11.20;;;;;;;-141.28;100.00;49478.47;5103364;28;20670;-74
2022/12/10 10:41:24;;;;;;;25.00;11.87;;;;;;;-141.28;100.00;49417.63;5116709;28;20203;-74
2022/12/10 10:44:01;;;;;;;19.47;11.83;;;;;;;-141.28;100.00;49403.91;5096706;28;20284;-75
2022/12/10 10:46:30;;;;;;;16.30;10.80;;;;;;;-141.28;100.00;49372.50;5100325;28;20701;-74
2022/12/10 10:49:16;;;;;;;19.37;11.37;;;;;;;-141.28;100.00;49309.72;5096595;28;20697;-74
2022/12/10 10:51:45;;;;;;;25.93;12.30;;;;;;;-141.28;100.00;49329.34;5095554;28;20294;-78
2022/12/10 10:54:31;;;;;;;17.70;10.27;;;;;;;-141.28;100.00;49733.56;5107291;28;20241;-75
2022/12/10 10:56:58;;;;;;;17.90;10.70;;;;;;;-141.28;100.00;49892.53;5095029;28;20274;-76
2022/12/10 10:59:31;;;;;;;17.73;10.63;;;;;;;-141.28;100.00;49733.56;5099165;28;20200;-74
2022/12/10 11:02:05;;;;;;;17.50;9.97;;;;;;;-141.28;100.00;49786.56;5113768;28;20200;-73
2022/12/10 11:04:38;;;;;;;19.27;10.50;;;;;;;-141.28;100.00;50098.63;5110362;28;20227;-74
2022/12/10 11:07:13;;;;;;;21.93;10.43;;;;;;;-141.28;100.00;50149.63;5113064;28;20219;-73
2022/12/10 11:09:40;;;;;;;20.33;10.40;;;;;;;-141.28;100.00;50063.28;5112389;28;20209;-74
2022/12/10 11:12:22;;;;;;;19.57;10.30;;;;;;;-141.28;100.00;50130.00;5099445;28;20321;-76
2022/12/10 11:14:49;;;;;;;13.23;7.20;;;;;;;-141.28;100.00;49996.56;5095096;28;20576;-75